sensor_id;sensor_type;location;lat;lon;timestamp;temperature;humidity
18160;DHT22;9205;52.032;4.314;2023-02-01T00:00:04;7.70;99.90
18160;DHT22;9205;52.032;4.314;2023-02-01T00:03:03;7.70;99.90
18160;DHT22;9205;52.032;4.314;2023-02-01T00:09:14;7.70;1.00
18160;DHT22;9205;52.032;4.314;2023-02-01T00:11:42;7.70;1.00
18160;DHT22;9205;52.032;4.314;2023-02-01T00:14:13;7.70;1.00
18160;DHT22;9205;52.032;4.314;2023-02-01T00:16:40;7.60;1.00
18160;DHT22;9205;52.032;4.314;2023-02-01T00:19:10;7.60;1.00
18160;DHT22;9205;52.032;4.314;2023-02-01T00:21:39;7.70;1.00
18160;DHT22;9205;52.032;4.314;2023-02-01T00:24:08;7.60;1.00
18160;DHT22;9205;52.032;4.314;2023-02-01T00:26:37;7.60;1.00
18160;DHT22;9205;52.032;4.314;2023-02-01T00:29:08;7.60;1.00
18160;DHT22;9205;52.032;4.314;2023-02-01T00:31:38;7.70;1.00
18160;DHT22;9205;52.032;4.314;2023-02-01T00:34:05;7.70;1.00
18160;DHT22;9205;52.032;4.314;2023-02-01T00:36:34;7.70;1.00
18160;DHT22;9205;52.032;4.314;2023-02-01T00:39:01;7.60;1.00
18160;DHT22;9205;52.032;4.314;2023-02-01T00:41:29;7.60;1.00
18160;DHT22;9205;52.032;4.314;2023-02-01T00:43:56;7.70;1.00
18160;DHT22;9205;52.032;4.314;2023-02-01T00:46:25;7.70;1.00
18160;DHT22;9205;52.032;4.314;2023-02-01T00:48:53;7.70;1.00
18160;DHT22;9205;52.032;4.314;2023-02-01T00:51:22;7.60;1.00
18160;DHT22;9205;52.032;4.314;2023-02-01T00:53:52;7.60;1.00
18160;DHT22;9205;52.032;4.314;2023-02-01T00:56:19;7.60;1.00
18160;DHT22;9205;52.032;4.314;2023-02-01T00:58:47;7.70;1.00
18160;DHT22;9205;52.032;4.314;2023-02-01T01:01:16;7.60;60.40
18160;DHT22;9205;52.032;4.314;2023-02-01T01:03:49;7.70;99.90
18160;DHT22;9205;52.032;4.314;2023-02-01T01:06:20;7.70;99.90
18160;DHT22;9205;52.032;4.314;2023-02-01T01:08:51;7.70;99.90
18160;DHT22;9205;52.032;4.314;2023-02-01T01:11:21;7.70;99.90
18160;DHT22;9205;52.032;4.314;2023-02-01T01:13:51;7.70;99.90
18160;DHT22;9205;52.032;4.314;2023-02-01T01:16:20;7.80;99.90
18160;DHT22;9205;52.032;4.314;2023-02-01T01:18:50;7.80;99.90
18160;DHT22;9205;52.032;4.314;2023-02-01T01:21:18;7.70;99.90
18160;DHT22;9205;52.032;4.314;2023-02-01T01:23:46;7.70;1.00
18160;DHT22;9205;52.032;4.314;2023-02-01T01:26:16;7.70;1.00
18160;DHT22;9205;52.032;4.314;2023-02-01T01:28:45;7.70;1.00
18160;DHT22;9205;52.032;4.314;2023-02-01T01:31:14;7.70;1.00
18160;DHT22;9205;52.032;4.314;2023-02-01T01:33:44;7.70;1.00
18160;DHT22;9205;52.032;4.314;2023-02-01T01:36:16;7.70;1.00
18160;DHT22;9205;52.032;4.314;2023-02-01T01:38:43;7.60;1.00
18160;DHT22;9205;52.032;4.314;2023-02-01T01:41:13;7.60;1.00
18160;DHT22;9205;52.032;4.314;2023-02-01T01:43:52;7.70;1.00
18160;DHT22;9205;52.032;4.314;2023-02-01T01:46:23;7.70;1.00
18160;DHT22;9205;52.032;4.314;2023-02-01T01:49:01;7.60;1.00
18160;DHT22;9205;52.032;4.314;2023-02-01T01:51:39;7.60;1.00
18160;DHT22;9205;52.032;4.314;2023-02-01T01:54:14;7.60;1.00
18160;DHT22;9205;52.032;4.314;2023-02-01T01:56:46;7.60;1.00
18160;DHT22;9205;52.032;4.314;2023-02-01T01:59:17;7.70;1.00
18160;DHT22;9205;52.032;4.314;2023-02-01T02:01:45;7.80;1.00
18160;DHT22;9205;52.032;4.314;2023-02-01T02:04:13;7.80;1.00
18160;DHT22;9205;52.032;4.314;2023-02-01T02:06:45;7.80;1.00
18160;DHT22;9205;52.032;4.314;2023-02-01T02:09:16;7.80;1.00
18160;DHT22;9205;52.032;4.314;2023-02-01T02:11:44;7.80;1.00
18160;DHT22;9205;52.032;4.314;2023-02-01T02:14:13;7.80;1.00
18160;DHT22;9205;52.032;4.314;2023-02-01T02:17:10;7.80;1.00
18160;DHT22;9205;52.032;4.314;2023-02-01T02:23:32;7.80;1.00
18160;DHT22;9205;52.032;4.314;2023-02-01T02:26:35;7.70;1.00
18160;DHT22;9205;52.032;4.314;2023-02-01T02:29:38;7.70;1.00
18160;DHT22;9205;52.032;4.314;2023-02-01T02:32:59;7.70;1.00
18160;DHT22;9205;52.032;4.314;2023-02-01T02:35:55;7.80;1.00
18160;DHT22;9205;52.032;4.314;2023-02-01T02:38:32;7.90;1.00
18160;DHT22;9205;52.032;4.314;2023-02-01T02:41:14;7.80;1.00
18160;DHT22;9205;52.032;4.314;2023-02-01T02:44:00;7.70;1.00
18160;DHT22;9205;52.032;4.314;2023-02-01T02:46:52;7.80;1.00
18160;DHT22;9205;52.032;4.314;2023-02-01T02:49:49;7.80;1.00
18160;DHT22;9205;52.032;4.314;2023-02-01T02:52:38;7.80;1.00
18160;DHT22;9205;52.032;4.314;2023-02-01T02:55:30;7.80;1.00
18160;DHT22;9205;52.032;4.314;2023-02-01T02:58:04;7.70;1.00
18160;DHT22;9205;52.032;4.314;2023-02-01T03:00:51;7.70;1.00
18160;DHT22;9205;52.032;4.314;2023-02-01T03:03:39;7.70;1.00
18160;DHT22;9205;52.032;4.314;2023-02-01T03:06:25;7.70;1.00
18160;DHT22;9205;52.032;4.314;2023-02-01T03:08:58;7.60;1.00
18160;DHT22;9205;52.032;4.314;2023-02-01T03:11:28;7.60;1.00
18160;DHT22;9205;52.032;4.314;2023-02-01T03:14:14;7.70;36.30
18160;DHT22;9205;52.032;4.314;2023-02-01T03:16:48;7.50;64.20
18160;DHT22;9205;52.032;4.314;2023-02-01T03:19:24;7.60;1.00
18160;DHT22;9205;52.032;4.314;2023-02-01T03:21:59;7.50;1.00
18160;DHT22;9205;52.032;4.314;2023-02-01T03:24:32;7.60;1.00
18160;DHT22;9205;52.032;4.314;2023-02-01T03:27:07;7.60;1.00
18160;DHT22;9205;52.032;4.314;2023-02-01T03:29:45;7.50;1.00
18160;DHT22;9205;52.032;4.314;2023-02-01T03:32:17;7.50;1.00
18160;DHT22;9205;52.032;4.314;2023-02-01T03:34:45;7.60;1.00
18160;DHT22;9205;52.032;4.314;2023-02-01T03:37:20;7.60;1.00
18160;DHT22;9205;52.032;4.314;2023-02-01T03:39:57;7.60;1.00
18160;DHT22;9205;52.032;4.314;2023-02-01T03:42:35;7.60;1.00
18160;DHT22;9205;52.032;4.314;2023-02-01T03:45:11;7.50;1.00
18160;DHT22;9205;52.032;4.314;2023-02-01T03:47:47;7.50;1.00
18160;DHT22;9205;52.032;4.314;2023-02-01T03:50:19;7.60;1.00
18160;DHT22;9205;52.032;4.314;2023-02-01T03:52:52;7.60;1.00
18160;DHT22;9205;52.032;4.314;2023-02-01T03:55:25;7.40;1.00
18160;DHT22;9205;52.032;4.314;2023-02-01T03:57:58;7.50;1.00
18160;DHT22;9205;52.032;4.314;2023-02-01T04:00:29;7.40;1.00
18160;DHT22;9205;52.032;4.314;2023-02-01T04:02:57;7.50;1.00
18160;DHT22;9205;52.032;4.314;2023-02-01T04:05:25;7.50;1.00
18160;DHT22;9205;52.032;4.314;2023-02-01T04:08:00;7.50;99.90
18160;DHT22;9205;52.032;4.314;2023-02-01T04:10:28;7.50;99.90
18160;DHT22;9205;52.032;4.314;2023-02-01T04:12:55;7.60;99.90
18160;DHT22;9205;52.032;4.314;2023-02-01T04:15:23;7.60;99.90
18160;DHT22;9205;52.032;4.314;2023-02-01T04:17:51;7.60;99.90
18160;DHT22;9205;52.032;4.314;2023-02-01T04:20:18;7.60;99.90
18160;DHT22;9205;52.032;4.314;2023-02-01T04:22:45;7.70;99.90
18160;DHT22;9205;52.032;4.314;2023-02-01T04:25:12;7.60;99.90
18160;DHT22;9205;52.032;4.314;2023-02-01T04:27:41;7.50;1.00
18160;DHT22;9205;52.032;4.314;2023-02-01T04:30:09;7.60;1.00
18160;DHT22;9205;52.032;4.314;2023-02-01T04:32:38;7.50;1.00
18160;DHT22;9205;52.032;4.314;2023-02-01T04:35:07;7.50;1.00
18160;DHT22;9205;52.032;4.314;2023-02-01T04:37:35;7.50;1.00
18160;DHT22;9205;52.032;4.314;2023-02-01T04:40:03;7.50;1.00
18160;DHT22;9205;52.032;4.314;2023-02-01T04:42:30;7.60;1.00
18160;DHT22;9205;52.032;4.314;2023-02-01T04:44:59;7.60;1.00
18160;DHT22;9205;52.032;4.314;2023-02-01T04:47:26;7.60;1.00
18160;DHT22;9205;52.032;4.314;2023-02-01T04:49:53;7.50;1.00
18160;DHT22;9205;52.032;4.314;2023-02-01T04:52:21;7.40;1.00
18160;DHT22;9205;52.032;4.314;2023-02-01T04:54:48;7.50;1.00
18160;DHT22;9205;52.032;4.314;2023-02-01T04:57:15;7.40;1.00
18160;DHT22;9205;52.032;4.314;2023-02-01T04:59:43;7.40;1.00
18160;DHT22;9205;52.032;4.314;2023-02-01T05:02:11;7.30;1.00
18160;DHT22;9205;52.032;4.314;2023-02-01T05:04:38;7.40;1.00
18160;DHT22;9205;52.032;4.314;2023-02-01T05:07:06;7.40;81.50
18160;DHT22;9205;52.032;4.314;2023-02-01T05:09:33;7.30;58.80
18160;DHT22;9205;52.032;4.314;2023-02-01T05:12:00;7.30;2.10
18160;DHT22;9205;52.032;4.314;2023-02-01T05:14:44;7.20;99.90
18160;DHT22;9205;52.032;4.314;2023-02-01T05:17:14;7.20;99.90
18160;DHT22;9205;52.032;4.314;2023-02-01T05:19:41;7.20;99.90
18160;DHT22;9205;52.032;4.314;2023-02-01T05:22:09;7.20;99.90
18160;DHT22;9205;52.032;4.314;2023-02-01T05:24:36;7.20;99.90
18160;DHT22;9205;52.032;4.314;2023-02-01T05:27:03;7.30;99.90
18160;DHT22;9205;52.032;4.314;2023-02-01T05:29:31;7.30;99.90
18160;DHT22;9205;52.032;4.314;2023-02-01T05:31:58;7.30;99.90
18160;DHT22;9205;52.032;4.314;2023-02-01T05:34:27;7.30;99.90
18160;DHT22;9205;52.032;4.314;2023-02-01T05:36:54;7.30;99.90
18160;DHT22;9205;52.032;4.314;2023-02-01T05:39:21;7.30;1.00
18160;DHT22;9205;52.032;4.314;2023-02-01T05:41:48;7.30;1.00
18160;DHT22;9205;52.032;4.314;2023-02-01T05:44:16;7.30;1.00
18160;DHT22;9205;52.032;4.314;2023-02-01T05:46:43;7.30;1.00
18160;DHT22;9205;52.032;4.314;2023-02-01T05:49:10;7.30;1.00
18160;DHT22;9205;52.032;4.314;2023-02-01T05:51:39;7.20;1.00
18160;DHT22;9205;52.032;4.314;2023-02-01T05:54:08;7.30;1.00
18160;DHT22;9205;52.032;4.314;2023-02-01T05:56:35;7.30;1.00
18160;DHT22;9205;52.032;4.314;2023-02-01T05:59:02;7.20;1.00
18160;DHT22;9205;52.032;4.314;2023-02-01T06:01:30;7.20;1.00
18160;DHT22;9205;52.032;4.314;2023-02-01T06:03:57;7.30;1.00
18160;DHT22;9205;52.032;4.314;2023-02-01T06:06:24;7.30;1.00
18160;DHT22;9205;52.032;4.314;2023-02-01T06:08:53;7.30;1.00
18160;DHT22;9205;52.032;4.314;2023-02-01T06:11:20;7.30;1.00
18160;DHT22;9205;52.032;4.314;2023-02-01T06:13:47;7.30;1.00
18160;DHT22;9205;52.032;4.314;2023-02-01T06:16:15;7.40;1.00
18160;DHT22;9205;52.032;4.314;2023-02-01T06:18:42;7.30;1.00
18160;DHT22;9205;52.032;4.314;2023-02-01T06:21:09;7.40;1.00
18160;DHT22;9205;52.032;4.314;2023-02-01T06:23:39;7.30;1.00
18160;DHT22;9205;52.032;4.314;2023-02-01T06:26:09;7.40;1.00
18160;DHT22;9205;52.032;4.314;2023-02-01T06:28:37;7.40;99.90
18160;DHT22;9205;52.032;4.314;2023-02-01T06:31:05;7.50;99.90
18160;DHT22;9205;52.032;4.314;2023-02-01T06:33:34;7.50;1.00
18160;DHT22;9205;52.032;4.314;2023-02-01T06:36:03;7.40;1.00
18160;DHT22;9205;52.032;4.314;2023-02-01T06:38:33;7.40;1.60
18160;DHT22;9205;52.032;4.314;2023-02-01T06:41:02;7.50;99.90
18160;DHT22;9205;52.032;4.314;2023-02-01T06:43:31;7.50;95.30
18160;DHT22;9205;52.032;4.314;2023-02-01T06:46:00;7.50;64.10
18160;DHT22;9205;52.032;4.314;2023-02-01T06:48:29;7.40;58.10
18160;DHT22;9205;52.032;4.314;2023-02-01T06:50:57;7.50;99.90
18160;DHT22;9205;52.032;4.314;2023-02-01T06:53:24;7.40;78.50
18160;DHT22;9205;52.032;4.314;2023-02-01T06:55:53;7.50;99.90
18160;DHT22;9205;52.032;4.314;2023-02-01T06:58:20;7.50;99.90
18160;DHT22;9205;52.032;4.314;2023-02-01T07:00:49;7.40;99.90
18160;DHT22;9205;52.032;4.314;2023-02-01T07:03:19;7.40;99.90
18160;DHT22;9205;52.032;4.314;2023-02-01T07:05:46;7.40;99.90
18160;DHT22;9205;52.032;4.314;2023-02-01T07:08:14;7.40;99.90
18160;DHT22;9205;52.032;4.314;2023-02-01T07:10:41;7.40;99.90
18160;DHT22;9205;52.032;4.314;2023-02-01T07:13:10;7.40;99.90
18160;DHT22;9205;52.032;4.314;2023-02-01T07:15:38;7.40;99.90
18160;DHT22;9205;52.032;4.314;2023-02-01T07:18:07;7.50;99.90
18160;DHT22;9205;52.032;4.314;2023-02-01T07:20:34;7.40;1.00
18160;DHT22;9205;52.032;4.314;2023-02-01T07:23:01;7.50;1.00
18160;DHT22;9205;52.032;4.314;2023-02-01T07:25:28;7.40;1.00
18160;DHT22;9205;52.032;4.314;2023-02-01T07:27:56;7.40;1.00
18160;DHT22;9205;52.032;4.314;2023-02-01T07:30:23;7.50;1.00
18160;DHT22;9205;52.032;4.314;2023-02-01T07:32:51;7.50;1.00
18160;DHT22;9205;52.032;4.314;2023-02-01T07:35:20;7.50;1.00
18160;DHT22;9205;52.032;4.314;2023-02-01T07:37:47;7.40;1.00
18160;DHT22;9205;52.032;4.314;2023-02-01T07:40:14;7.50;1.00
18160;DHT22;9205;52.032;4.314;2023-02-01T07:42:42;7.50;1.00
18160;DHT22;9205;52.032;4.314;2023-02-01T07:45:09;7.40;1.00
18160;DHT22;9205;52.032;4.314;2023-02-01T07:47:38;7.40;1.00
18160;DHT22;9205;52.032;4.314;2023-02-01T07:50:06;7.50;1.00
18160;DHT22;9205;52.032;4.314;2023-02-01T07:52:35;7.40;1.00
18160;DHT22;9205;52.032;4.314;2023-02-01T07:55:03;7.40;1.00
18160;DHT22;9205;52.032;4.314;2023-02-01T07:57:31;7.50;1.00
18160;DHT22;9205;52.032;4.314;2023-02-01T07:59:58;7.50;1.00
18160;DHT22;9205;52.032;4.314;2023-02-01T08:02:42;7.50;1.00
18160;DHT22;9205;52.032;4.314;2023-02-01T08:05:10;7.50;1.00
18160;DHT22;9205;52.032;4.314;2023-02-01T08:07:38;7.50;1.00
18160;DHT22;9205;52.032;4.314;2023-02-01T08:10:06;7.40;1.00
18160;DHT22;9205;52.032;4.314;2023-02-01T08:12:36;7.50;1.00
18160;DHT22;9205;52.032;4.314;2023-02-01T08:15:04;7.50;1.00
18160;DHT22;9205;52.032;4.314;2023-02-01T08:17:32;7.50;1.00
18160;DHT22;9205;52.032;4.314;2023-02-01T08:20:00;7.50;1.00
18160;DHT22;9205;52.032;4.314;2023-02-01T08:22:31;7.60;1.00
18160;DHT22;9205;52.032;4.314;2023-02-01T08:25:00;7.50;1.00
18160;DHT22;9205;52.032;4.314;2023-02-01T08:27:27;7.60;1.00
18160;DHT22;9205;52.032;4.314;2023-02-01T08:29:55;7.70;1.00
18160;DHT22;9205;52.032;4.314;2023-02-01T08:32:22;7.70;1.00
18160;DHT22;9205;52.032;4.314;2023-02-01T08:34:49;7.70;1.00
18160;DHT22;9205;52.032;4.314;2023-02-01T08:37:16;7.60;1.00
18160;DHT22;9205;52.032;4.314;2023-02-01T08:39:44;7.60;1.00
18160;DHT22;9205;52.032;4.314;2023-02-01T08:42:13;7.60;99.90
18160;DHT22;9205;52.032;4.314;2023-02-01T08:44:57;7.80;99.90
18160;DHT22;9205;52.032;4.314;2023-02-01T08:47:25;7.80;99.90
18160;DHT22;9205;52.032;4.314;2023-02-01T08:49:52;7.70;99.90
18160;DHT22;9205;52.032;4.314;2023-02-01T08:52:19;7.70;1.00
18160;DHT22;9205;52.032;4.314;2023-02-01T08:54:47;7.70;1.00
18160;DHT22;9205;52.032;4.314;2023-02-01T08:57:15;7.80;1.00
18160;DHT22;9205;52.032;4.314;2023-02-01T08:59:43;7.90;1.00
18160;DHT22;9205;52.032;4.314;2023-02-01T09:02:12;7.90;1.00
18160;DHT22;9205;52.032;4.314;2023-02-01T09:04:41;7.90;1.00
18160;DHT22;9205;52.032;4.314;2023-02-01T09:07:09;8.00;1.00
18160;DHT22;9205;52.032;4.314;2023-02-01T09:09:37;7.90;1.00
18160;DHT22;9205;52.032;4.314;2023-02-01T09:12:04;7.90;99.90
18160;DHT22;9205;52.032;4.314;2023-02-01T09:14:33;8.00;1.00
18160;DHT22;9205;52.032;4.314;2023-02-01T09:17:01;7.90;1.00
18160;DHT22;9205;52.032;4.314;2023-02-01T09:19:28;8.00;1.00
18160;DHT22;9205;52.032;4.314;2023-02-01T09:21:55;8.00;1.00
18160;DHT22;9205;52.032;4.314;2023-02-01T09:24:22;8.00;1.00
18160;DHT22;9205;52.032;4.314;2023-02-01T09:26:50;8.00;1.00
18160;DHT22;9205;52.032;4.314;2023-02-01T09:29:18;8.00;99.90
18160;DHT22;9205;52.032;4.314;2023-02-01T09:31:46;8.00;99.90
18160;DHT22;9205;52.032;4.314;2023-02-01T09:34:13;8.10;51.50
18160;DHT22;9205;52.032;4.314;2023-02-01T09:36:41;8.20;1.00
18160;DHT22;9205;52.032;4.314;2023-02-01T09:39:08;8.20;1.00
18160;DHT22;9205;52.032;4.314;2023-02-01T09:41:49;8.20;1.00
18160;DHT22;9205;52.032;4.314;2023-02-01T09:47:43;8.10;1.00
18160;DHT22;9205;52.032;4.314;2023-02-01T09:50:17;8.20;1.00
18160;DHT22;9205;52.032;4.314;2023-02-01T09:52:54;8.10;1.00
18160;DHT22;9205;52.032;4.314;2023-02-01T09:55:29;8.20;1.00
18160;DHT22;9205;52.032;4.314;2023-02-01T09:58:05;8.10;1.00
18160;DHT22;9205;52.032;4.314;2023-02-01T10:00:36;8.20;1.00
18160;DHT22;9205;52.032;4.314;2023-02-01T10:03:10;8.10;1.00
18160;DHT22;9205;52.032;4.314;2023-02-01T10:05:56;8.10;1.00
18160;DHT22;9205;52.032;4.314;2023-02-01T10:09:18;8.10;1.00
18160;DHT22;9205;52.032;4.314;2023-02-01T10:12:18;8.10;1.00
18160;DHT22;9205;52.032;4.314;2023-02-01T10:15:14;8.10;1.00
18160;DHT22;9205;52.032;4.314;2023-02-01T10:21:23;8.00;1.00
18160;DHT22;9205;52.032;4.314;2023-02-01T10:24:23;8.10;1.00
18160;DHT22;9205;52.032;4.314;2023-02-01T10:27:06;8.10;36.50
18160;DHT22;9205;52.032;4.314;2023-02-01T10:29:41;8.10;66.50
18160;DHT22;9205;52.032;4.314;2023-02-01T10:32:16;8.30;1.00
18160;DHT22;9205;52.032;4.314;2023-02-01T10:34:50;8.30;1.00
18160;DHT22;9205;52.032;4.314;2023-02-01T10:37:26;8.30;1.00
18160;DHT22;9205;52.032;4.314;2023-02-01T10:39:59;8.30;1.00
18160;DHT22;9205;52.032;4.314;2023-02-01T10:42:29;8.30;1.00
18160;DHT22;9205;52.032;4.314;2023-02-01T10:45:00;8.30;1.00
18160;DHT22;9205;52.032;4.314;2023-02-01T10:47:30;8.40;1.00
18160;DHT22;9205;52.032;4.314;2023-02-01T10:50:08;8.50;1.00
18160;DHT22;9205;52.032;4.314;2023-02-01T10:52:46;8.40;1.00
18160;DHT22;9205;52.032;4.314;2023-02-01T10:55:31;8.50;1.00
18160;DHT22;9205;52.032;4.314;2023-02-01T10:58:02;8.50;1.00
18160;DHT22;9205;52.032;4.314;2023-02-01T11:00:45;8.60;1.00
18160;DHT22;9205;52.032;4.314;2023-02-01T11:03:36;8.60;1.00
18160;DHT22;9205;52.032;4.314;2023-02-01T11:06:19;8.70;1.00
18160;DHT22;9205;52.032;4.314;2023-02-01T11:08:53;8.70;99.90
18160;DHT22;9205;52.032;4.314;2023-02-01T11:11:22;8.70;99.90
18160;DHT22;9205;52.032;4.314;2023-02-01T11:14:15;8.60;99.90
18160;DHT22;9205;52.032;4.314;2023-02-01T11:16:47;8.60;99.90
18160;DHT22;9205;52.032;4.314;2023-02-01T11:19:17;8.60;99.90
18160;DHT22;9205;52.032;4.314;2023-02-01T11:21:49;8.60;99.90
18160;DHT22;9205;52.032;4.314;2023-02-01T11:24:22;8.60;99.90
18160;DHT22;9205;52.032;4.314;2023-02-01T11:26:53;8.60;99.90
18160;DHT22;9205;52.032;4.314;2023-02-01T11:29:22;8.60;99.90
18160;DHT22;9205;52.032;4.314;2023-02-01T11:31:56;8.60;99.90
18160;DHT22;9205;52.032;4.314;2023-02-01T11:34:36;8.60;99.90
18160;DHT22;9205;52.032;4.314;2023-02-01T11:37:16;8.60;99.90
18160;DHT22;9205;52.032;4.314;2023-02-01T11:39:54;8.70;99.90
18160;DHT22;9205;52.032;4.314;2023-02-01T11:42:22;8.70;99.90
18160;DHT22;9205;52.032;4.314;2023-02-01T11:44:51;8.60;99.90
18160;DHT22;9205;52.032;4.314;2023-02-01T11:47:43;8.70;99.90
18160;DHT22;9205;52.032;4.314;2023-02-01T11:50:15;8.60;99.90
18160;DHT22;9205;52.032;4.314;2023-02-01T11:53:08;8.60;99.90
18160;DHT22;9205;52.032;4.314;2023-02-01T11:56:07;8.70;99.90
18160;DHT22;9205;52.032;4.314;2023-02-01T11:59:06;8.60;99.90
18160;DHT22;9205;52.032;4.314;2023-02-01T12:01:49;8.60;99.90
18160;DHT22;9205;52.032;4.314;2023-02-01T12:04:54;8.60;99.90
18160;DHT22;9205;52.032;4.314;2023-02-01T12:07:53;8.70;99.90
18160;DHT22;9205;52.032;4.314;2023-02-01T12:10:40;8.50;99.90
18160;DHT22;9205;52.032;4.314;2023-02-01T12:13:27;8.60;99.90
18160;DHT22;9205;52.032;4.314;2023-02-01T12:16:19;8.50;99.90
18160;DHT22;9205;52.032;4.314;2023-02-01T12:19:20;8.50;99.90
18160;DHT22;9205;52.032;4.314;2023-02-01T12:22:09;8.60;99.90
18160;DHT22;9205;52.032;4.314;2023-02-01T12:25:12;8.50;99.90
18160;DHT22;9205;52.032;4.314;2023-02-01T12:28:07;8.60;99.90
18160;DHT22;9205;52.032;4.314;2023-02-01T12:30:58;8.60;99.90
18160;DHT22;9205;52.032;4.314;2023-02-01T12:33:55;8.60;99.90
18160;DHT22;9205;52.032;4.314;2023-02-01T12:36:37;8.60;99.90
18160;DHT22;9205;52.032;4.314;2023-02-01T12:39:20;8.70;99.90
18160;DHT22;9205;52.032;4.314;2023-02-01T12:41:57;8.60;99.90
18160;DHT22;9205;52.032;4.314;2023-02-01T12:44:37;8.70;99.90
18160;DHT22;9205;52.032;4.314;2023-02-01T12:47:19;8.70;99.90
18160;DHT22;9205;52.032;4.314;2023-02-01T12:49:55;8.80;99.90
18160;DHT22;9205;52.032;4.314;2023-02-01T12:52:32;8.70;99.90
18160;DHT22;9205;52.032;4.314;2023-02-01T12:55:07;8.70;99.90
18160;DHT22;9205;52.032;4.314;2023-02-01T12:57:47;8.80;99.90
18160;DHT22;9205;52.032;4.314;2023-02-01T13:00:24;8.80;1.00
18160;DHT22;9205;52.032;4.314;2023-02-01T13:03:03;8.90;1.00
18160;DHT22;9205;52.032;4.314;2023-02-01T13:05:46;8.90;99.90
18160;DHT22;9205;52.032;4.314;2023-02-01T13:08:23;8.90;1.00
18160;DHT22;9205;52.032;4.314;2023-02-01T13:10:57;9.00;1.00
18160;DHT22;9205;52.032;4.314;2023-02-01T13:13:42;9.00;1.00
18160;DHT22;9205;52.032;4.314;2023-02-01T13:16:19;9.10;1.00
18160;DHT22;9205;52.032;4.314;2023-02-01T13:18:57;9.20;1.00
18160;DHT22;9205;52.032;4.314;2023-02-01T13:21:33;9.10;99.90
18160;DHT22;9205;52.032;4.314;2023-02-01T13:24:04;9.10;99.90
18160;DHT22;9205;52.032;4.314;2023-02-01T13:26:36;9.20;99.90
18160;DHT22;9205;52.032;4.314;2023-02-01T13:29:06;9.20;99.90
18160;DHT22;9205;52.032;4.314;2023-02-01T13:31:58;9.10;99.90
18160;DHT22;9205;52.032;4.314;2023-02-01T13:35:07;9.10;99.90
18160;DHT22;9205;52.032;4.314;2023-02-01T13:38:09;9.00;1.00
18160;DHT22;9205;52.032;4.314;2023-02-01T13:40:59;9.00;1.00
18160;DHT22;9205;52.032;4.314;2023-02-01T13:43:36;9.00;1.00
18160;DHT22;9205;52.032;4.314;2023-02-01T13:46:10;8.90;1.00
18160;DHT22;9205;52.032;4.314;2023-02-01T13:48:45;9.00;1.00
18160;DHT22;9205;52.032;4.314;2023-02-01T13:51:15;8.90;1.00
18160;DHT22;9205;52.032;4.314;2023-02-01T13:53:55;8.80;1.00
18160;DHT22;9205;52.032;4.314;2023-02-01T13:56:23;8.90;1.00
18160;DHT22;9205;52.032;4.314;2023-02-01T13:58:52;8.80;1.00
18160;DHT22;9205;52.032;4.314;2023-02-01T14:01:35;8.90;1.00
18160;DHT22;9205;52.032;4.314;2023-02-01T14:04:04;8.90;1.00
18160;DHT22;9205;52.032;4.314;2023-02-01T14:06:43;8.80;1.00
18160;DHT22;9205;52.032;4.314;2023-02-01T14:09:33;8.80;1.00
18160;DHT22;9205;52.032;4.314;2023-02-01T14:12:43;8.90;1.00
18160;DHT22;9205;52.032;4.314;2023-02-01T14:15:19;8.80;99.90
18160;DHT22;9205;52.032;4.314;2023-02-01T14:17:52;8.80;99.90
18160;DHT22;9205;52.032;4.314;2023-02-01T14:20:45;8.80;99.90
18160;DHT22;9205;52.032;4.314;2023-02-01T14:23:29;8.80;99.90
18160;DHT22;9205;52.032;4.314;2023-02-01T14:26:15;8.90;1.00
18160;DHT22;9205;52.032;4.314;2023-02-01T14:28:58;8.90;1.00
18160;DHT22;9205;52.032;4.314;2023-02-01T14:31:38;8.90;1.00
18160;DHT22;9205;52.032;4.314;2023-02-01T14:34:33;9.00;1.00
18160;DHT22;9205;52.032;4.314;2023-02-01T14:37:10;8.90;1.00
18160;DHT22;9205;52.032;4.314;2023-02-01T14:39:56;9.00;1.00
18160;DHT22;9205;52.032;4.314;2023-02-01T14:42:28;9.00;1.00
18160;DHT22;9205;52.032;4.314;2023-02-01T14:48:44;9.00;1.00
18160;DHT22;9205;52.032;4.314;2023-02-01T14:51:16;8.90;1.00
18160;DHT22;9205;52.032;4.314;2023-02-01T14:53:45;8.90;1.00
18160;DHT22;9205;52.032;4.314;2023-02-01T14:56:16;9.00;1.00
18160;DHT22;9205;52.032;4.314;2023-02-01T14:58:52;8.90;1.00
18160;DHT22;9205;52.032;4.314;2023-02-01T15:01:25;8.90;1.00
18160;DHT22;9205;52.032;4.314;2023-02-01T15:03:58;9.00;1.00
18160;DHT22;9205;52.032;4.314;2023-02-01T15:06:35;9.00;1.00
18160;DHT22;9205;52.032;4.314;2023-02-01T15:09:10;8.90;1.60
18160;DHT22;9205;52.032;4.314;2023-02-01T15:12:01;8.90;35.60
18160;DHT22;9205;52.032;4.314;2023-02-01T15:14:31;8.90;30.90
18160;DHT22;9205;52.032;4.314;2023-02-01T15:17:00;9.00;10.90
18160;DHT22;9205;52.032;4.314;2023-02-01T15:19:29;8.90;76.30
18160;DHT22;9205;52.032;4.314;2023-02-01T15:21:58;9.00;1.00
18160;DHT22;9205;52.032;4.314;2023-02-01T15:24:27;9.00;1.00
18160;DHT22;9205;52.032;4.314;2023-02-01T15:27:03;9.00;1.00
18160;DHT22;9205;52.032;4.314;2023-02-01T15:29:31;9.00;1.00
18160;DHT22;9205;52.032;4.314;2023-02-01T15:31:59;9.10;1.00
18160;DHT22;9205;52.032;4.314;2023-02-01T15:34:45;9.00;1.00
18160;DHT22;9205;52.032;4.314;2023-02-01T15:37:16;9.00;1.00
18160;DHT22;9205;52.032;4.314;2023-02-01T15:40:14;9.00;1.00
18160;DHT22;9205;52.032;4.314;2023-02-01T15:42:52;9.00;1.00
18160;DHT22;9205;52.032;4.314;2023-02-01T15:45:22;9.00;1.00
18160;DHT22;9205;52.032;4.314;2023-02-01T15:47:56;9.10;1.00
18160;DHT22;9205;52.032;4.314;2023-02-01T15:50:24;9.00;1.00
18160;DHT22;9205;52.032;4.314;2023-02-01T15:53:00;8.90;1.00
18160;DHT22;9205;52.032;4.314;2023-02-01T15:55:34;8.90;1.00
18160;DHT22;9205;52.032;4.314;2023-02-01T15:58:07;8.90;1.00
18160;DHT22;9205;52.032;4.314;2023-02-01T16:00:42;8.80;1.00
18160;DHT22;9205;52.032;4.314;2023-02-01T16:03:26;8.90;1.00
18160;DHT22;9205;52.032;4.314;2023-02-01T16:06:00;9.00;1.00
18160;DHT22;9205;52.032;4.314;2023-02-01T16:08:31;9.00;1.00
18160;DHT22;9205;52.032;4.314;2023-02-01T16:11:22;9.10;1.00
18160;DHT22;9205;52.032;4.314;2023-02-01T16:13:55;9.00;1.00
18160;DHT22;9205;52.032;4.314;2023-02-01T16:16:42;9.00;1.00
18160;DHT22;9205;52.032;4.314;2023-02-01T16:19:23;9.10;1.00
18160;DHT22;9205;52.032;4.314;2023-02-01T16:21:59;9.00;1.00
18160;DHT22;9205;52.032;4.314;2023-02-01T16:24:52;9.00;1.00
18160;DHT22;9205;52.032;4.314;2023-02-01T16:27:32;9.10;1.00
18160;DHT22;9205;52.032;4.314;2023-02-01T16:30:02;9.10;1.00
18160;DHT22;9205;52.032;4.314;2023-02-01T16:32:32;9.10;1.00
18160;DHT22;9205;52.032;4.314;2023-02-01T16:34:59;9.10;1.00
18160;DHT22;9205;52.032;4.314;2023-02-01T16:37:33;9.20;1.00
18160;DHT22;9205;52.032;4.314;2023-02-01T16:40:03;9.10;1.00
18160;DHT22;9205;52.032;4.314;2023-02-01T16:42:31;9.10;1.00
18160;DHT22;9205;52.032;4.314;2023-02-01T16:44:59;9.00;1.00
18160;DHT22;9205;52.032;4.314;2023-02-01T16:47:26;9.10;99.90
18160;DHT22;9205;52.032;4.314;2023-02-01T16:49:53;9.00;99.90
18160;DHT22;9205;52.032;4.314;2023-02-01T16:52:23;8.90;99.90
18160;DHT22;9205;52.032;4.314;2023-02-01T16:54:52;8.90;1.00
18160;DHT22;9205;52.032;4.314;2023-02-01T16:57:21;9.00;1.00
18160;DHT22;9205;52.032;4.314;2023-02-01T16:59:49;8.80;1.00
18160;DHT22;9205;52.032;4.314;2023-02-01T17:02:19;8.90;1.00
18160;DHT22;9205;52.032;4.314;2023-02-01T17:04:47;8.90;1.00
18160;DHT22;9205;52.032;4.314;2023-02-01T17:07:17;8.80;99.90
18160;DHT22;9205;52.032;4.314;2023-02-01T17:09:45;8.80;99.90
18160;DHT22;9205;52.032;4.314;2023-02-01T17:12:19;8.90;99.90
18160;DHT22;9205;52.032;4.314;2023-02-01T17:14:51;8.80;1.00